Silverthorne, CO

15:02 MST le 22 décembre 2014 (GMT -0700)
Kremmling | Change Station
CLOSE
Current Station
Aéroport
Location: Kremmling,
Altitude: 7411 ft
Stations météo à proximité
Avis météorologiques actifs: Winter Storm Warning, Avalanche Warning Préavis actif: Public Information Statement

Alt. 7411 ft 40.05 °N, 106.37 °W | Updated 6 minutes ago

Neige
Neige
32 ° F
Paraît 24 ° F
N
9
Vent Variable Vent de NNO
Gusts 16 mph

Aujourd'hui
Haut(e) -- | Bas -- ° F
--% Risque de précip.
Hier
Haut(e) -- | Bas -- ° F
Precip. -- pouce
7:24 AM 4:43 PM
Nouvelle lune, 1% visible
Pression 29.72 pouce
Visibilité 10.0 Miles terrestres
Nuages Nuages épars 4000 ft
Nuages épars 6500 ft
Nuageux 7000 ft
Refroidissement éolien 24 ° F
Point de rosée 21 ° F
Humidité 64%
Précipitations 0.05 pouce
Profondeur de la couche neigeuse Non disponible.
UV 1 sur 12
Pollen .10 sur 12
Qualité de l'air Non disponible.
Flu Activity Non disponible.
METAR K20V 222156Z AUTO 33008G14KT 10SM SCT040 SCT065 BKN070 00/M06 A2972 RMK AO2

More Conditions Fewer Conditions

Pression 29.72 pouce
Visibilité 10.0 Miles terrestres
Nuages Nuages épars 4000 ft
Nuages épars 6500 ft
Nuageux 7000 ft
Refroidissement éolien 24 ° F
Point de rosée 21 ° F
Humidité 64%
Précipitations 0.05 pouce
Profondeur de la couche neigeuse Non disponible.
UV 1 sur 12
Pollen .10 sur 12
Qualité de l'air Non disponible.
Flu Activity Non disponible.
METAR K20V 222156Z AUTO 33008G14KT 10SM SCT040 SCT065 BKN070 00/M06 A2972 RMK AO2

More Conditions Fewer Conditions

10-Day Weather Forecast

Almanac

Astronomie

Dec. 22, 2014 Lever Coucher
Temps réel
Crépuscule civil
Crépuscule nautique
Crépuscule astronomique
Lune
Durée de lumière visible
Longueur du jour
Tomorrow will be .
, % of the Moon is Illuminated

Extrêmes aujourd'hui

State Highs State Lows

Community

WunderPhotos

Upload Photos

1,779,691 Photos téléchargées !

WunderBlogs® & News

Nearby

Qualité de l'air

  Qualité de l'air Indice de la qualité de l'air Polluant
Not available.

Épaisseur de neige

Station Depth Altitude

Activité sismique

Ville Distance Mag. Time & Date
Minimum magnitude displayed is 2.5.

Températures des eaux côtières

Lieu Température

Stations météo à proximité